sensor_id;sensor_type;location;lat;lon;timestamp;P1;durP1;ratioP1;P2;durP2;ratioP2
9763;SDS011;4921;43.214;27.936;2023-04-06T00:00:33;9.50;;;8.60;;
9763;SDS011;4921;43.214;27.936;2023-04-06T00:03:00;9.77;;;8.20;;
9763;SDS011;4921;43.214;27.936;2023-04-06T00:05:27;8.80;;;7.63;;
9763;SDS011;4921;43.214;27.936;2023-04-06T00:07:55;9.67;;;8.27;;
9763;SDS011;4921;43.214;27.936;2023-04-06T00:10:23;7.80;;;7.10;;
9763;SDS011;4921;43.214;27.936;2023-04-06T00:12:52;9.23;;;7.80;;
9763;SDS011;4921;43.214;27.936;2023-04-06T00:15:19;7.83;;;7.03;;
9763;SDS011;4921;43.214;27.936;2023-04-06T00:17:46;7.83;;;7.03;;
9763;SDS011;4921;43.214;27.936;2023-04-06T00:20:13;7.97;;;7.17;;
9763;SDS011;4921;43.214;27.936;2023-04-06T00:22:40;7.87;;;7.17;;
9763;SDS011;4921;43.214;27.936;2023-04-06T00:25:08;7.20;;;6.50;;
9763;SDS011;4921;43.214;27.936;2023-04-06T00:27:35;8.90;;;7.10;;
9763;SDS011;4921;43.214;27.936;2023-04-06T00:30:04;8.23;;;7.43;;
9763;SDS011;4921;43.214;27.936;2023-04-06T00:32:31;8.90;;;8.00;;
9763;SDS011;4921;43.214;27.936;2023-04-06T00:34:58;9.07;;;8.17;;
9763;SDS011;4921;43.214;27.936;2023-04-06T00:37:25;9.13;;;8.27;;
9763;SDS011;4921;43.214;27.936;2023-04-06T00:39:52;10.10;;;8.53;;
9763;SDS011;4921;43.214;27.936;2023-04-06T00:42:19;9.27;;;8.37;;
9763;SDS011;4921;43.214;27.936;2023-04-06T00:44:51;9.60;;;8.60;;
9763;SDS011;4921;43.214;27.936;2023-04-06T00:47:20;10.10;;;8.87;;
9763;SDS011;4921;43.214;27.936;2023-04-06T00:49:47;9.87;;;8.80;;
9763;SDS011;4921;43.214;27.936;2023-04-06T00:52:15;8.80;;;7.90;;
9763;SDS011;4921;43.214;27.936;2023-04-06T00:54:42;9.20;;;7.90;;
9763;SDS011;4921;43.214;27.936;2023-04-06T00:57:09;8.77;;;7.83;;
9763;SDS011;4921;43.214;27.936;2023-04-06T00:59:36;8.77;;;7.93;;
9763;SDS011;4921;43.214;27.936;2023-04-06T01:02:03;8.70;;;7.80;;
9763;SDS011;4921;43.214;27.936;2023-04-06T01:04:32;9.63;;;7.77;;
9763;SDS011;4921;43.214;27.936;2023-04-06T01:07:00;8.07;;;7.27;;
9763;SDS011;4921;43.214;27.936;2023-04-06T01:09:27;8.13;;;7.43;;
9763;SDS011;4921;43.214;27.936;2023-04-06T01:11:55;7.37;;;6.70;;
9763;SDS011;4921;43.214;27.936;2023-04-06T01:14:22;7.20;;;6.50;;
9763;SDS011;4921;43.214;27.936;2023-04-06T01:16:50;7.50;;;6.67;;
9763;SDS011;4921;43.214;27.936;2023-04-06T01:19:18;7.83;;;6.47;;
9763;SDS011;4921;43.214;27.936;2023-04-06T01:21:47;8.57;;;6.77;;
9763;SDS011;4921;43.214;27.936;2023-04-06T01:24:16;6.93;;;6.20;;
9763;SDS011;4921;43.214;27.936;2023-04-06T01:26:44;7.13;;;6.40;;
9763;SDS011;4921;43.214;27.936;2023-04-06T01:29:11;6.30;;;5.70;;
9763;SDS011;4921;43.214;27.936;2023-04-06T01:31:39;6.43;;;5.83;;
9763;SDS011;4921;43.214;27.936;2023-04-06T01:34:06;6.10;;;5.60;;
9763;SDS011;4921;43.214;27.936;2023-04-06T01:36:33;5.87;;;5.33;;
9763;SDS011;4921;43.214;27.936;2023-04-06T01:39:00;6.57;;;5.73;;
9763;SDS011;4921;43.214;27.936;2023-04-06T01:41:29;6.27;;;5.67;;
9763;SDS011;4921;43.214;27.936;2023-04-06T01:43:56;6.63;;;5.83;;
9763;SDS011;4921;43.214;27.936;2023-04-06T01:46:23;6.53;;;5.83;;
9763;SDS011;4921;43.214;27.936;2023-04-06T01:48:50;6.10;;;5.60;;
9763;SDS011;4921;43.214;27.936;2023-04-06T01:51:17;6.10;;;5.50;;
9763;SDS011;4921;43.214;27.936;2023-04-06T01:53:44;5.73;;;5.23;;
9763;SDS011;4921;43.214;27.936;2023-04-06T01:56:11;6.20;;;5.70;;
9763;SDS011;4921;43.214;27.936;2023-04-06T01:58:39;6.50;;;5.90;;
9763;SDS011;4921;43.214;27.936;2023-04-06T02:01:06;7.03;;;6.03;;
9763;SDS011;4921;43.214;27.936;2023-04-06T02:03:33;5.80;;;5.30;;
9763;SDS011;4921;43.214;27.936;2023-04-06T02:06:00;6.57;;;5.97;;
9763;SDS011;4921;43.214;27.936;2023-04-06T02:08:28;6.30;;;5.70;;
9763;SDS011;4921;43.214;27.936;2023-04-06T02:10:55;8.17;;;6.10;;
9763;SDS011;4921;43.214;27.936;2023-04-06T02:13:22;6.07;;;5.57;;
9763;SDS011;4921;43.214;27.936;2023-04-06T02:15:51;5.77;;;5.30;;
9763;SDS011;4921;43.214;27.936;2023-04-06T02:18:18;6.20;;;5.60;;
9763;SDS011;4921;43.214;27.936;2023-04-06T02:20:45;6.97;;;6.27;;
9763;SDS011;4921;43.214;27.936;2023-04-06T02:23:12;6.70;;;6.07;;
9763;SDS011;4921;43.214;27.936;2023-04-06T02:25:39;6.67;;;5.97;;
9763;SDS011;4921;43.214;27.936;2023-04-06T02:28:06;6.60;;;5.87;;
9763;SDS011;4921;43.214;27.936;2023-04-06T02:30:33;6.80;;;6.03;;
9763;SDS011;4921;43.214;27.936;2023-04-06T02:33:02;7.33;;;5.83;;
9763;SDS011;4921;43.214;27.936;2023-04-06T02:35:29;6.80;;;6.20;;
9763;SDS011;4921;43.214;27.936;2023-04-06T02:37:57;7.93;;;6.03;;
9763;SDS011;4921;43.214;27.936;2023-04-06T02:40:24;6.17;;;5.50;;
9763;SDS011;4921;43.214;27.936;2023-04-06T02:42:51;6.40;;;5.70;;
9763;SDS011;4921;43.214;27.936;2023-04-06T02:45:18;7.17;;;6.47;;
9763;SDS011;4921;43.214;27.936;2023-04-06T02:47:46;6.23;;;5.67;;
9763;SDS011;4921;43.214;27.936;2023-04-06T02:50:14;5.73;;;5.23;;
9763;SDS011;4921;43.214;27.936;2023-04-06T02:52:41;6.17;;;5.60;;
9763;SDS011;4921;43.214;27.936;2023-04-06T02:55:08;6.40;;;5.80;;
9763;SDS011;4921;43.214;27.936;2023-04-06T02:57:35;6.27;;;5.73;;
9763;SDS011;4921;43.214;27.936;2023-04-06T03:00:03;6.80;;;6.20;;
9763;SDS011;4921;43.214;27.936;2023-04-06T03:02:31;7.13;;;6.50;;
9763;SDS011;4921;43.214;27.936;2023-04-06T03:04:58;6.90;;;6.27;;
9763;SDS011;4921;43.214;27.936;2023-04-06T03:07:26;7.07;;;6.40;;
9763;SDS011;4921;43.214;27.936;2023-04-06T03:09:53;6.87;;;6.27;;
9763;SDS011;4921;43.214;27.936;2023-04-06T03:12:20;7.00;;;6.40;;
9763;SDS011;4921;43.214;27.936;2023-04-06T03:14:47;7.60;;;6.80;;
9763;SDS011;4921;43.214;27.936;2023-04-06T03:17:14;7.27;;;6.57;;
9763;SDS011;4921;43.214;27.936;2023-04-06T03:19:41;7.43;;;6.73;;
9763;SDS011;4921;43.214;27.936;2023-04-06T03:22:14;14.10;;;6.73;;
9763;SDS011;4921;43.214;27.936;2023-04-06T03:24:43;10.60;;;8.30;;
9763;SDS011;4921;43.214;27.936;2023-04-06T03:27:10;10.70;;;9.47;;
9763;SDS011;4921;43.214;27.936;2023-04-06T03:29:37;12.17;;;9.20;;
9763;SDS011;4921;43.214;27.936;2023-04-06T03:32:04;8.70;;;7.80;;
9763;SDS011;4921;43.214;27.936;2023-04-06T03:34:31;10.17;;;9.23;;
9763;SDS011;4921;43.214;27.936;2023-04-06T03:36:58;11.50;;;10.30;;
9763;SDS011;4921;43.214;27.936;2023-04-06T03:39:25;12.53;;;10.60;;
9763;SDS011;4921;43.214;27.936;2023-04-06T03:41:53;11.33;;;9.90;;
9763;SDS011;4921;43.214;27.936;2023-04-06T03:44:20;10.77;;;9.30;;
9763;SDS011;4921;43.214;27.936;2023-04-06T03:46:47;9.47;;;8.47;;
9763;SDS011;4921;43.214;27.936;2023-04-06T03:49:14;9.37;;;8.53;;
9763;SDS011;4921;43.214;27.936;2023-04-06T03:51:41;10.10;;;9.03;;
9763;SDS011;4921;43.214;27.936;2023-04-06T03:54:08;9.37;;;8.37;;
9763;SDS011;4921;43.214;27.936;2023-04-06T03:56:35;11.10;;;8.73;;
9763;SDS011;4921;43.214;27.936;2023-04-06T03:59:04;10.27;;;9.27;;
9763;SDS011;4921;43.214;27.936;2023-04-06T04:01:31;10.43;;;9.30;;
9763;SDS011;4921;43.214;27.936;2023-04-06T04:03:57;10.53;;;8.90;;
9763;SDS011;4921;43.214;27.936;2023-04-06T04:06:25;14.30;;;10.43;;
9763;SDS011;4921;43.214;27.936;2023-04-06T04:08:52;15.60;;;10.23;;
9763;SDS011;4921;43.214;27.936;2023-04-06T04:11:19;14.57;;;10.77;;
9763;SDS011;4921;43.214;27.936;2023-04-06T04:13:46;11.10;;;10.00;;
9763;SDS011;4921;43.214;27.936;2023-04-06T04:16:15;12.03;;;9.53;;
9763;SDS011;4921;43.214;27.936;2023-04-06T04:18:41;10.20;;;9.20;;
9763;SDS011;4921;43.214;27.936;2023-04-06T04:21:10;10.40;;;9.30;;
9763;SDS011;4921;43.214;27.936;2023-04-06T04:23:37;12.57;;;9.30;;
9763;SDS011;4921;43.214;27.936;2023-04-06T04:26:04;10.10;;;8.70;;
9763;SDS011;4921;43.214;27.936;2023-04-06T04:28:32;10.40;;;9.40;;
9763;SDS011;4921;43.214;27.936;2023-04-06T04:30:59;13.03;;;9.40;;
9763;SDS011;4921;43.214;27.936;2023-04-06T04:33:27;8.67;;;7.80;;
9763;SDS011;4921;43.214;27.936;2023-04-06T04:35:54;8.63;;;7.83;;
9763;SDS011;4921;43.214;27.936;2023-04-06T04:38:21;11.10;;;8.20;;
9763;SDS011;4921;43.214;27.936;2023-04-06T04:40:48;9.07;;;8.17;;
9763;SDS011;4921;43.214;27.936;2023-04-06T04:43:15;11.33;;;8.73;;
9763;SDS011;4921;43.214;27.936;2023-04-06T04:45:42;8.70;;;7.83;;
9763;SDS011;4921;43.214;27.936;2023-04-06T04:48:09;14.30;;;9.27;;
9763;SDS011;4921;43.214;27.936;2023-04-06T04:50:38;9.67;;;8.10;;
9763;SDS011;4921;43.214;27.936;2023-04-06T04:53:05;10.83;;;9.23;;
9763;SDS011;4921;43.214;27.936;2023-04-06T04:55:32;9.73;;;8.80;;
9763;SDS011;4921;43.214;27.936;2023-04-06T04:57:59;10.37;;;9.30;;
9763;SDS011;4921;43.214;27.936;2023-04-06T05:00:27;10.47;;;8.70;;
9763;SDS011;4921;43.214;27.936;2023-04-06T05:02:54;11.07;;;9.03;;
9763;SDS011;4921;43.214;27.936;2023-04-06T05:05:21;11.50;;;9.00;;
9763;SDS011;4921;43.214;27.936;2023-04-06T05:07:50;11.53;;;8.97;;
9763;SDS011;4921;43.214;27.936;2023-04-06T05:10:17;10.80;;;9.67;;
9763;SDS011;4921;43.214;27.936;2023-04-06T05:12:44;13.03;;;8.77;;
9763;SDS011;4921;43.214;27.936;2023-04-06T05:15:11;10.03;;;9.10;;
9763;SDS011;4921;43.214;27.936;2023-04-06T05:17:39;9.13;;;8.17;;
9763;SDS011;4921;43.214;27.936;2023-04-06T05:20:06;11.13;;;9.43;;
9763;SDS011;4921;43.214;27.936;2023-04-06T05:22:34;14.87;;;9.50;;
9763;SDS011;4921;43.214;27.936;2023-04-06T05:25:03;9.77;;;8.67;;
9763;SDS011;4921;43.214;27.936;2023-04-06T05:27:31;10.63;;;9.63;;
9763;SDS011;4921;43.214;27.936;2023-04-06T05:29:58;12.53;;;10.47;;
9763;SDS011;4921;43.214;27.936;2023-04-06T05:32:25;11.60;;;9.43;;
9763;SDS011;4921;43.214;27.936;2023-04-06T05:34:53;17.30;;;9.87;;
9763;SDS011;4921;43.214;27.936;2023-04-06T05:37:21;13.07;;;10.17;;
9763;SDS011;4921;43.214;27.936;2023-04-06T05:39:48;13.93;;;9.77;;
9763;SDS011;4921;43.214;27.936;2023-04-06T05:42:16;10.97;;;9.27;;
9763;SDS011;4921;43.214;27.936;2023-04-06T05:44:43;13.70;;;9.47;;
9763;SDS011;4921;43.214;27.936;2023-04-06T05:47:10;9.13;;;8.27;;
9763;SDS011;4921;43.214;27.936;2023-04-06T05:49:37;9.07;;;8.07;;
9763;SDS011;4921;43.214;27.936;2023-04-06T05:52:05;9.40;;;8.13;;
9763;SDS011;4921;43.214;27.936;2023-04-06T05:54:32;9.30;;;8.40;;
9763;SDS011;4921;43.214;27.936;2023-04-06T05:56:59;10.00;;;8.17;;
9763;SDS011;4921;43.214;27.936;2023-04-06T05:59:30;11.27;;;8.00;;
9763;SDS011;4921;43.214;27.936;2023-04-06T06:01:57;9.87;;;8.43;;
9763;SDS011;4921;43.214;27.936;2023-04-06T06:04:26;15.67;;;8.90;;
9763;SDS011;4921;43.214;27.936;2023-04-06T06:06:53;9.90;;;8.23;;
9763;SDS011;4921;43.214;27.936;2023-04-06T06:09:20;11.57;;;8.30;;
9763;SDS011;4921;43.214;27.936;2023-04-06T06:11:47;17.87;;;10.10;;
9763;SDS011;4921;43.214;27.936;2023-04-06T06:14:15;14.50;;;9.30;;
9763;SDS011;4921;43.214;27.936;2023-04-06T06:16:43;12.37;;;9.73;;
9763;SDS011;4921;43.214;27.936;2023-04-06T06:19:10;13.50;;;9.80;;
9763;SDS011;4921;43.214;27.936;2023-04-06T06:21:37;12.90;;;9.60;;
9763;SDS011;4921;43.214;27.936;2023-04-06T06:24:04;10.93;;;9.63;;
9763;SDS011;4921;43.214;27.936;2023-04-06T06:26:32;11.40;;;9.07;;
9763;SDS011;4921;43.214;27.936;2023-04-06T06:29:00;9.70;;;8.70;;
9763;SDS011;4921;43.214;27.936;2023-04-06T06:31:27;10.73;;;9.60;;
9763;SDS011;4921;43.214;27.936;2023-04-06T06:33:56;13.17;;;9.03;;
9763;SDS011;4921;43.214;27.936;2023-04-06T06:36:23;10.43;;;9.43;;
9763;SDS011;4921;43.214;27.936;2023-04-06T06:38:50;12.10;;;8.83;;
9763;SDS011;4921;43.214;27.936;2023-04-06T06:41:17;9.80;;;8.80;;
9763;SDS011;4921;43.214;27.936;2023-04-06T06:43:44;12.60;;;9.20;;
9763;SDS011;4921;43.214;27.936;2023-04-06T06:46:11;12.37;;;9.50;;
9763;SDS011;4921;43.214;27.936;2023-04-06T06:48:38;10.90;;;8.97;;
9763;SDS011;4921;43.214;27.936;2023-04-06T06:51:07;14.30;;;9.00;;
9763;SDS011;4921;43.214;27.936;2023-04-06T06:53:34;10.70;;;8.53;;
9763;SDS011;4921;43.214;27.936;2023-04-06T06:56:01;10.80;;;8.63;;
9763;SDS011;4921;43.214;27.936;2023-04-06T06:58:29;9.90;;;8.80;;
9763;SDS011;4921;43.214;27.936;2023-04-06T07:00:56;9.23;;;8.10;;
9763;SDS011;4921;43.214;27.936;2023-04-06T07:03:23;12.20;;;8.67;;
9763;SDS011;4921;43.214;27.936;2023-04-06T07:05:51;9.47;;;8.57;;
9763;SDS011;4921;43.214;27.936;2023-04-06T07:08:20;11.13;;;8.83;;
9763;SDS011;4921;43.214;27.936;2023-04-06T07:10:49;8.83;;;7.93;;
9763;SDS011;4921;43.214;27.936;2023-04-06T07:13:18;9.30;;;8.27;;
9763;SDS011;4921;43.214;27.936;2023-04-06T07:15:47;9.80;;;8.73;;
9763;SDS011;4921;43.214;27.936;2023-04-06T07:18:15;11.13;;;8.40;;
9763;SDS011;4921;43.214;27.936;2023-04-06T07:20:42;9.23;;;8.20;;
9763;SDS011;4921;43.214;27.936;2023-04-06T07:23:09;11.30;;;8.63;;
9763;SDS011;4921;43.214;27.936;2023-04-06T07:25:38;9.47;;;8.57;;
9763;SDS011;4921;43.214;27.936;2023-04-06T07:28:05;8.90;;;7.63;;
9763;SDS011;4921;43.214;27.936;2023-04-06T07:30:32;11.73;;;8.30;;
9763;SDS011;4921;43.214;27.936;2023-04-06T07:32:59;9.23;;;8.23;;
9763;SDS011;4921;43.214;27.936;2023-04-06T07:35:26;9.73;;;8.47;;
9763;SDS011;4921;43.214;27.936;2023-04-06T07:37:55;11.00;;;8.20;;
9763;SDS011;4921;43.214;27.936;2023-04-06T07:40:23;8.23;;;7.37;;
9763;SDS011;4921;43.214;27.936;2023-04-06T07:42:52;10.33;;;8.07;;
9763;SDS011;4921;43.214;27.936;2023-04-06T07:45:20;8.97;;;7.10;;
9763;SDS011;4921;43.214;27.936;2023-04-06T07:47:47;8.43;;;7.57;;
9763;SDS011;4921;43.214;27.936;2023-04-06T07:50:15;8.07;;;7.40;;
9763;SDS011;4921;43.214;27.936;2023-04-06T07:52:42;10.73;;;8.07;;
9763;SDS011;4921;43.214;27.936;2023-04-06T07:55:09;9.13;;;7.27;;
9763;SDS011;4921;43.214;27.936;2023-04-06T07:57:36;14.00;;;8.17;;
9763;SDS011;4921;43.214;27.936;2023-04-06T08:00:05;8.10;;;7.33;;
9763;SDS011;4921;43.214;27.936;2023-04-06T08:02:34;9.57;;;8.50;;
9763;SDS011;4921;43.214;27.936;2023-04-06T08:05:01;8.37;;;7.57;;
9763;SDS011;4921;43.214;27.936;2023-04-06T08:07:28;8.90;;;7.60;;
9763;SDS011;4921;43.214;27.936;2023-04-06T08:09:55;8.57;;;7.57;;
9763;SDS011;4921;43.214;27.936;2023-04-06T08:12:22;10.60;;;9.00;;
9763;SDS011;4921;43.214;27.936;2023-04-06T08:14:49;8.33;;;7.60;;
9763;SDS011;4921;43.214;27.936;2023-04-06T08:17:18;8.40;;;7.40;;
9763;SDS011;4921;43.214;27.936;2023-04-06T08:19:46;8.77;;;7.60;;
9763;SDS011;4921;43.214;27.936;2023-04-06T08:22:12;10.10;;;7.77;;
9763;SDS011;4921;43.214;27.936;2023-04-06T08:24:40;13.97;;;8.57;;
9763;SDS011;4921;43.214;27.936;2023-04-06T08:27:07;7.77;;;6.77;;
9763;SDS011;4921;43.214;27.936;2023-04-06T08:29:34;8.17;;;6.77;;
9763;SDS011;4921;43.214;27.936;2023-04-06T08:32:01;8.30;;;7.40;;
9763;SDS011;4921;43.214;27.936;2023-04-06T08:34:31;7.27;;;6.57;;
9763;SDS011;4921;43.214;27.936;2023-04-06T08:36:58;6.87;;;6.27;;
9763;SDS011;4921;43.214;27.936;2023-04-06T08:39:25;6.83;;;5.80;;
9763;SDS011;4921;43.214;27.936;2023-04-06T08:41:53;10.23;;;6.10;;
9763;SDS011;4921;43.214;27.936;2023-04-06T08:44:22;8.90;;;7.07;;
9763;SDS011;4921;43.214;27.936;2023-04-06T08:46:49;7.87;;;6.87;;
9763;SDS011;4921;43.214;27.936;2023-04-06T08:49:18;7.30;;;6.60;;
9763;SDS011;4921;43.214;27.936;2023-04-06T08:51:46;10.70;;;6.50;;
9763;SDS011;4921;43.214;27.936;2023-04-06T08:54:14;10.93;;;6.50;;
9763;SDS011;4921;43.214;27.936;2023-04-06T08:56:41;6.50;;;6.00;;
9763;SDS011;4921;43.214;27.936;2023-04-06T08:59:09;7.33;;;5.77;;
9763;SDS011;4921;43.214;27.936;2023-04-06T09:01:38;7.77;;;6.70;;
9763;SDS011;4921;43.214;27.936;2023-04-06T09:04:07;7.93;;;5.97;;
9763;SDS011;4921;43.214;27.936;2023-04-06T09:06:36;7.80;;;6.37;;
9763;SDS011;4921;43.214;27.936;2023-04-06T09:09:05;6.40;;;5.80;;
9763;SDS011;4921;43.214;27.936;2023-04-06T09:11:42;7.00;;;5.67;;
9763;SDS011;4921;43.214;27.936;2023-04-06T09:14:10;10.40;;;6.53;;
9763;SDS011;4921;43.214;27.936;2023-04-06T09:16:41;7.20;;;6.43;;
9763;SDS011;4921;43.214;27.936;2023-04-06T09:19:08;9.23;;;6.47;;
9763;SDS011;4921;43.214;27.936;2023-04-06T09:21:36;6.50;;;5.90;;
9763;SDS011;4921;43.214;27.936;2023-04-06T09:24:07;5.87;;;5.37;;
9763;SDS011;4921;43.214;27.936;2023-04-06T09:26:43;9.17;;;6.23;;
9763;SDS011;4921;43.214;27.936;2023-04-06T09:29:21;6.87;;;6.27;;
9763;SDS011;4921;43.214;27.936;2023-04-06T09:31:49;6.07;;;5.50;;
9763;SDS011;4921;43.214;27.936;2023-04-06T09:34:22;8.00;;;6.07;;
9763;SDS011;4921;43.214;27.936;2023-04-06T09:36:52;8.40;;;5.90;;
9763;SDS011;4921;43.214;27.936;2023-04-06T09:39:21;6.00;;;5.40;;
9763;SDS011;4921;43.214;27.936;2023-04-06T09:41:50;6.80;;;6.10;;
9763;SDS011;4921;43.214;27.936;2023-04-06T09:44:18;9.73;;;6.30;;
9763;SDS011;4921;43.214;27.936;2023-04-06T09:46:46;6.80;;;6.20;;
9763;SDS011;4921;43.214;27.936;2023-04-06T09:49:13;7.17;;;6.47;;
9763;SDS011;4921;43.214;27.936;2023-04-06T09:51:45;12.30;;;6.90;;
9763;SDS011;4921;43.214;27.936;2023-04-06T09:54:15;7.23;;;6.20;;
9763;SDS011;4921;43.214;27.936;2023-04-06T09:56:47;10.00;;;7.33;;
9763;SDS011;4921;43.214;27.936;2023-04-06T09:59:21;7.70;;;6.30;;
9763;SDS011;4921;43.214;27.936;2023-04-06T10:01:56;11.20;;;8.03;;
9763;SDS011;4921;43.214;27.936;2023-04-06T10:04:27;6.83;;;6.10;;
9763;SDS011;4921;43.214;27.936;2023-04-06T10:07:03;8.53;;;6.90;;
9763;SDS011;4921;43.214;27.936;2023-04-06T10:09:33;8.07;;;6.37;;
9763;SDS011;4921;43.214;27.936;2023-04-06T10:12:05;7.97;;;6.90;;
9763;SDS011;4921;43.214;27.936;2023-04-06T10:14:33;6.67;;;6.07;;
9763;SDS011;4921;43.214;27.936;2023-04-06T10:17:02;8.90;;;7.63;;
9763;SDS011;4921;43.214;27.936;2023-04-06T10:19:44;6.90;;;6.30;;
9763;SDS011;4921;43.214;27.936;2023-04-06T10:22:18;7.57;;;6.87;;
9763;SDS011;4921;43.214;27.936;2023-04-06T10:24:50;8.97;;;7.83;;
9763;SDS011;4921;43.214;27.936;2023-04-06T10:27:28;9.43;;;7.40;;
9763;SDS011;4921;43.214;27.936;2023-04-06T10:30:00;8.70;;;7.77;;
9763;SDS011;4921;43.214;27.936;2023-04-06T10:32:32;7.60;;;6.90;;
9763;SDS011;4921;43.214;27.936;2023-04-06T10:35:07;7.67;;;7.00;;
9763;SDS011;4921;43.214;27.936;2023-04-06T10:37:51;7.57;;;6.50;;
9763;SDS011;4921;43.214;27.936;2023-04-06T10:40:20;10.33;;;7.90;;
9763;SDS011;4921;43.214;27.936;2023-04-06T10:42:50;7.47;;;6.73;;
9763;SDS011;4921;43.214;27.936;2023-04-06T10:45:21;8.00;;;6.87;;
9763;SDS011;4921;43.214;27.936;2023-04-06T10:47:50;9.60;;;7.57;;
9763;SDS011;4921;43.214;27.936;2023-04-06T10:50:22;8.10;;;7.40;;
9763;SDS011;4921;43.214;27.936;2023-04-06T10:52:58;10.10;;;7.27;;
9763;SDS011;4921;43.214;27.936;2023-04-06T10:55:26;9.13;;;6.90;;
9763;SDS011;4921;43.214;27.936;2023-04-06T10:57:55;10.60;;;6.90;;
9763;SDS011;4921;43.214;27.936;2023-04-06T11:00:22;7.47;;;6.77;;
9763;SDS011;4921;43.214;27.936;2023-04-06T11:02:50;8.47;;;6.53;;
9763;SDS011;4921;43.214;27.936;2023-04-06T11:05:17;7.90;;;7.10;;
9763;SDS011;4921;43.214;27.936;2023-04-06T11:07:44;7.63;;;6.50;;
9763;SDS011;4921;43.214;27.936;2023-04-06T11:10:11;9.30;;;7.10;;
9763;SDS011;4921;43.214;27.936;2023-04-06T11:12:38;7.87;;;7.07;;
9763;SDS011;4921;43.214;27.936;2023-04-06T11:15:07;8.03;;;6.60;;
9763;SDS011;4921;43.214;27.936;2023-04-06T11:17:35;8.60;;;6.50;;
9763;SDS011;4921;43.214;27.936;2023-04-06T11:20:04;10.93;;;7.87;;
9763;SDS011;4921;43.214;27.936;2023-04-06T11:22:36;7.23;;;6.63;;
9763;SDS011;4921;43.214;27.936;2023-04-06T11:25:14;7.37;;;5.60;;
9763;SDS011;4921;43.214;27.936;2023-04-06T11:27:42;10.90;;;6.57;;
9763;SDS011;4921;43.214;27.936;2023-04-06T11:30:12;7.63;;;6.80;;
9763;SDS011;4921;43.214;27.936;2023-04-06T11:32:40;7.90;;;6.77;;
9763;SDS011;4921;43.214;27.936;2023-04-06T11:35:10;7.77;;;7.07;;
9763;SDS011;4921;43.214;27.936;2023-04-06T11:37:37;8.10;;;6.73;;
9763;SDS011;4921;43.214;27.936;2023-04-06T11:40:07;6.73;;;6.07;;
9763;SDS011;4921;43.214;27.936;2023-04-06T11:42:35;7.67;;;6.70;;
9763;SDS011;4921;43.214;27.936;2023-04-06T11:45:02;9.37;;;6.53;;
9763;SDS011;4921;43.214;27.936;2023-04-06T11:47:32;6.80;;;6.20;;
9763;SDS011;4921;43.214;27.936;2023-04-06T11:50:05;9.77;;;6.87;;
9763;SDS011;4921;43.214;27.936;2023-04-06T11:52:33;6.80;;;6.17;;
9763;SDS011;4921;43.214;27.936;2023-04-06T11:55:09;16.43;;;6.57;;
9763;SDS011;4921;43.214;27.936;2023-04-06T11:57:38;7.67;;;6.47;;
9763;SDS011;4921;43.214;27.936;2023-04-06T12:00:05;7.20;;;5.87;;
9763;SDS011;4921;43.214;27.936;2023-04-06T12:02:34;6.90;;;6.20;;
9763;SDS011;4921;43.214;27.936;2023-04-06T12:05:02;7.07;;;6.07;;
9763;SDS011;4921;43.214;27.936;2023-04-06T12:07:30;6.37;;;5.80;;
9763;SDS011;4921;43.214;27.936;2023-04-06T12:09:58;8.13;;;6.07;;
9763;SDS011;4921;43.214;27.936;2023-04-06T12:12:25;6.80;;;6.20;;
9763;SDS011;4921;43.214;27.936;2023-04-06T12:14:52;8.97;;;5.80;;
9763;SDS011;4921;43.214;27.936;2023-04-06T12:17:19;8.33;;;5.73;;
9763;SDS011;4921;43.214;27.936;2023-04-06T12:19:48;7.83;;;5.67;;
9763;SDS011;4921;43.214;27.936;2023-04-06T12:22:15;7.83;;;5.97;;
9763;SDS011;4921;43.214;27.936;2023-04-06T12:24:43;6.67;;;5.93;;
9763;SDS011;4921;43.214;27.936;2023-04-06T12:27:10;6.47;;;5.87;;
9763;SDS011;4921;43.214;27.936;2023-04-06T12:29:37;7.37;;;6.30;;
9763;SDS011;4921;43.214;27.936;2023-04-06T12:32:04;7.87;;;6.30;;
9763;SDS011;4921;43.214;27.936;2023-04-06T12:34:32;7.93;;;7.13;;
9763;SDS011;4921;43.214;27.936;2023-04-06T12:37:00;9.83;;;6.73;;
9763;SDS011;4921;43.214;27.936;2023-04-06T12:39:27;8.47;;;5.97;;
9763;SDS011;4921;43.214;27.936;2023-04-06T12:41:55;7.17;;;6.47;;
9763;SDS011;4921;43.214;27.936;2023-04-06T12:44:23;6.77;;;6.17;;
9763;SDS011;4921;43.214;27.936;2023-04-06T12:46:50;7.37;;;6.40;;
9763;SDS011;4921;43.214;27.936;2023-04-06T12:49:17;9.03;;;6.10;;
9763;SDS011;4921;43.214;27.936;2023-04-06T12:51:44;7.50;;;5.97;;
9763;SDS011;4921;43.214;27.936;2023-04-06T12:54:13;8.90;;;6.23;;
9763;SDS011;4921;43.214;27.936;2023-04-06T12:56:40;9.63;;;6.53;;
9763;SDS011;4921;43.214;27.936;2023-04-06T12:59:07;7.70;;;7.00;;
9763;SDS011;4921;43.214;27.936;2023-04-06T13:01:34;9.87;;;6.87;;
9763;SDS011;4921;43.214;27.936;2023-04-06T13:04:01;7.07;;;6.47;;
9763;SDS011;4921;43.214;27.936;2023-04-06T13:06:29;7.53;;;6.70;;
9763;SDS011;4921;43.214;27.936;2023-04-06T13:08:56;7.33;;;6.63;;
9763;SDS011;4921;43.214;27.936;2023-04-06T13:11:25;6.47;;;5.87;;
9763;SDS011;4921;43.214;27.936;2023-04-06T13:13:52;7.23;;;6.47;;
9763;SDS011;4921;43.214;27.936;2023-04-06T13:16:19;9.03;;;6.27;;
9763;SDS011;4921;43.214;27.936;2023-04-06T13:18:46;6.80;;;6.20;;
9763;SDS011;4921;43.214;27.936;2023-04-06T13:21:13;6.00;;;5.50;;
9763;SDS011;4921;43.214;27.936;2023-04-06T13:23:42;7.27;;;6.50;;
9763;SDS011;4921;43.214;27.936;2023-04-06T13:26:09;7.87;;;7.17;;
9763;SDS011;4921;43.214;27.936;2023-04-06T13:28:37;8.60;;;7.80;;
9763;SDS011;4921;43.214;27.936;2023-04-06T13:31:05;7.97;;;7.17;;
9763;SDS011;4921;43.214;27.936;2023-04-06T13:33:33;8.13;;;7.37;;
9763;SDS011;4921;43.214;27.936;2023-04-06T13:36:01;8.23;;;6.83;;
9763;SDS011;4921;43.214;27.936;2023-04-06T13:38:29;7.53;;;6.90;;
9763;SDS011;4921;43.214;27.936;2023-04-06T13:40:56;7.97;;;7.17;;
9763;SDS011;4921;43.214;27.936;2023-04-06T13:43:24;12.00;;;7.53;;
9763;SDS011;4921;43.214;27.936;2023-04-06T13:45:53;8.93;;;8.00;;
9763;SDS011;4921;43.214;27.936;2023-04-06T13:48:23;8.30;;;7.53;;
9763;SDS011;4921;43.214;27.936;2023-04-06T13:50:51;9.07;;;8.17;;
9763;SDS011;4921;43.214;27.936;2023-04-06T13:53:18;8.43;;;7.73;;
9763;SDS011;4921;43.214;27.936;2023-04-06T13:55:51;11.53;;;8.17;;
9763;SDS011;4921;43.214;27.936;2023-04-06T13:58:19;8.33;;;7.63;;
9763;SDS011;4921;43.214;27.936;2023-04-06T14:00:46;8.47;;;7.77;;
9763;SDS011;4921;43.214;27.936;2023-04-06T14:03:14;9.17;;;8.00;;
9763;SDS011;4921;43.214;27.936;2023-04-06T14:05:41;10.60;;;8.10;;
9763;SDS011;4921;43.214;27.936;2023-04-06T14:08:08;10.13;;;8.70;;
9763;SDS011;4921;43.214;27.936;2023-04-06T14:10:36;8.70;;;7.90;;
9763;SDS011;4921;43.214;27.936;2023-04-06T14:13:05;8.23;;;7.53;;
9763;SDS011;4921;43.214;27.936;2023-04-06T14:15:32;9.47;;;8.47;;
9763;SDS011;4921;43.214;27.936;2023-04-06T14:17:59;9.70;;;8.70;;
9763;SDS011;4921;43.214;27.936;2023-04-06T14:20:28;9.40;;;8.23;;
9763;SDS011;4921;43.214;27.936;2023-04-06T14:22:55;9.40;;;7.23;;
9763;SDS011;4921;43.214;27.936;2023-04-06T14:25:22;9.30;;;8.00;;
9763;SDS011;4921;43.214;27.936;2023-04-06T14:27:49;7.97;;;7.27;;
9763;SDS011;4921;43.214;27.936;2023-04-06T14:30:15;10.20;;;8.57;;
9763;SDS011;4921;43.214;27.936;2023-04-06T14:32:43;8.87;;;8.00;;
9763;SDS011;4921;43.214;27.936;2023-04-06T14:35:10;8.17;;;7.40;;
9763;SDS011;4921;43.214;27.936;2023-04-06T14:37:39;8.20;;;7.53;;
9763;SDS011;4921;43.214;27.936;2023-04-06T14:40:06;7.70;;;7.00;;
9763;SDS011;4921;43.214;27.936;2023-04-06T14:42:35;8.00;;;7.30;;
9763;SDS011;4921;43.214;27.936;2023-04-06T14:45:02;9.10;;;7.50;;
9763;SDS011;4921;43.214;27.936;2023-04-06T14:47:31;9.57;;;8.70;;
9763;SDS011;4921;43.214;27.936;2023-04-06T14:49:58;8.20;;;7.50;;
9763;SDS011;4921;43.214;27.936;2023-04-06T14:52:25;8.70;;;7.80;;
9763;SDS011;4921;43.214;27.936;2023-04-06T14:54:54;9.60;;;8.37;;
9763;SDS011;4921;43.214;27.936;2023-04-06T14:57:21;8.97;;;8.17;;
9763;SDS011;4921;43.214;27.936;2023-04-06T14:59:48;9.73;;;8.10;;
9763;SDS011;4921;43.214;27.936;2023-04-06T15:02:15;9.03;;;8.23;;